createdAt,value
2018-09-10T00:00:45.761Z,-74
2018-09-10T00:01:45.676Z,-74
2018-09-10T00:02:45.765Z,-74
2018-09-10T00:03:45.653Z,-74
2018-09-10T00:04:45.772Z,-74
2018-09-10T00:05:45.652Z,-74
2018-09-10T00:06:45.793Z,-74
2018-09-10T00:07:45.653Z,-77
2018-09-10T00:08:45.773Z,-74
2018-09-10T00:09:45.656Z,-74
2018-09-10T00:10:48.561Z,-75
2018-09-10T00:11:45.679Z,-75
2018-09-10T00:12:45.776Z,-75
2018-09-10T00:13:45.658Z,-75
2018-09-10T00:14:45.775Z,-75
2018-09-10T00:15:45.659Z,-76
2018-09-10T00:16:45.805Z,-76
2018-09-10T00:17:45.663Z,-76
2018-09-10T00:18:45.779Z,-76
2018-09-10T00:19:45.665Z,-78
2018-09-10T00:20:45.807Z,-78
2018-09-10T00:21:45.694Z,-78
2018-09-10T00:22:45.787Z,-78
2018-09-10T00:24:45.789Z,-78
2018-09-10T00:25:45.669Z,-81
2018-09-10T00:26:45.816Z,-78
2018-09-10T00:27:45.671Z,-78
2018-09-10T00:28:45.789Z,-78
2018-09-10T00:29:45.714Z,-79
2018-09-10T00:30:45.798Z,-79
2018-09-10T00:31:45.700Z,-78
2018-09-10T00:32:45.791Z,-78
2018-09-10T00:33:45.678Z,-78
2018-09-10T00:34:45.796Z,-79
2018-09-10T00:35:45.678Z,-78
2018-09-10T00:36:45.816Z,-78
2018-09-10T00:37:45.679Z,-78
2018-09-10T00:38:45.802Z,-78
2018-09-10T00:39:45.681Z,-79
2018-09-10T00:40:45.804Z,-78
2018-09-10T00:41:45.708Z,-78
2018-09-10T00:42:45.805Z,-78
2018-09-10T00:43:45.687Z,-78
2018-09-10T00:44:45.805Z,-77
2018-09-10T00:45:45.687Z,-78
2018-09-10T00:46:45.839Z,-77
2018-09-10T00:47:45.700Z,-76
2018-09-10T00:48:45.810Z,-76
2018-09-10T00:49:45.692Z,-76
2018-09-10T00:50:45.866Z,-76
2018-09-10T00:51:45.716Z,-76
2018-09-10T00:52:45.814Z,-76
2018-09-10T00:53:45.693Z,-76
2018-09-10T00:54:45.823Z,-76
2018-09-10T00:55:45.695Z,-76
2018-09-10T00:56:45.856Z,-76
2018-09-10T00:57:45.697Z,-76
2018-09-10T00:58:45.812Z,-76
2018-09-10T00:59:45.701Z,-76
2018-09-10T01:00:45.819Z,-74
2018-09-10T01:01:45.701Z,-76
2018-09-10T01:02:45.844Z,-76
2018-09-10T01:03:45.702Z,-76
2018-09-10T01:04:45.821Z,-76
2018-09-10T01:05:45.706Z,-76
2018-09-10T01:06:45.821Z,-76
2018-09-10T01:07:45.730Z,-76
2018-09-10T01:08:45.829Z,-76
2018-09-10T01:09:45.710Z,-75
2018-09-10T01:10:45.825Z,-75
2018-09-10T01:11:45.711Z,-75
2018-09-10T01:12:45.860Z,-75
2018-09-10T01:13:45.715Z,-75
2018-09-10T01:14:45.832Z,-75
2018-09-10T01:15:45.714Z,-76
2018-09-10T01:16:45.830Z,-76
2018-09-10T01:17:45.742Z,-76
2018-09-10T01:18:45.836Z,-76
2018-09-10T01:19:45.718Z,-76
2018-09-10T01:20:45.839Z,-76
2018-09-10T01:21:45.723Z,-76
2018-09-10T01:22:45.869Z,-76
2018-09-10T01:23:45.722Z,-76
2018-09-10T01:24:45.840Z,-76
2018-09-10T01:25:45.723Z,-78
2018-09-10T01:26:45.844Z,-76
2018-09-10T01:27:45.749Z,-76
2018-09-10T01:28:45.843Z,-76
2018-09-10T01:29:45.727Z,-76
2018-09-10T01:30:45.841Z,-76
2018-09-10T01:31:45.729Z,-77
2018-09-10T01:32:45.875Z,-76
2018-09-10T01:33:45.731Z,-76
2018-09-10T01:34:45.869Z,-76
2018-09-10T01:35:45.734Z,-76
2018-09-10T01:36:45.850Z,-76
2018-09-10T01:37:45.760Z,-76
2018-09-10T01:38:45.854Z,-76
2018-09-10T01:39:45.735Z,-76
2018-09-10T01:40:45.856Z,-76
2018-09-10T01:41:45.740Z,-76
2018-09-10T01:42:45.880Z,-76
2018-09-10T01:43:45.740Z,-76
2018-09-10T01:44:45.864Z,-76
2018-09-10T01:45:45.742Z,-76
2018-09-10T01:46:45.866Z,-76
2018-09-10T01:47:45.767Z,-76
2018-09-10T01:48:45.858Z,-76
2018-09-10T01:49:45.744Z,-76
2018-09-10T01:50:45.871Z,-76
2018-09-10T01:51:45.747Z,-76
2018-09-10T01:52:45.900Z,-76
2018-09-10T01:53:45.751Z,-76
2018-09-10T01:54:45.914Z,-76
2018-09-10T01:55:45.749Z,-76
2018-09-10T01:56:45.867Z,-76
2018-09-10T01:57:45.778Z,-76
2018-09-10T01:58:45.881Z,-76
2018-09-10T01:59:45.754Z,-78
2018-09-10T02:00:45.870Z,-76
2018-09-10T02:01:45.755Z,-76
2018-09-10T02:02:45.903Z,-76
2018-09-10T02:03:45.757Z,-76
2018-09-10T02:04:45.876Z,-76
2018-09-10T02:05:45.760Z,-76
2018-09-10T02:06:45.880Z,-77
2018-09-10T02:07:45.759Z,-77
2018-09-10T02:08:45.902Z,-77
2018-09-10T02:09:45.761Z,-77
2018-09-10T02:10:45.881Z,-77
2018-09-10T02:11:45.893Z,-80
2018-09-10T02:12:45.885Z,-77
2018-09-10T02:13:45.790Z,-77
2018-09-10T02:14:45.886Z,-77
2018-09-10T02:15:45.769Z,-77
2018-09-10T02:16:45.886Z,-77
2018-09-10T02:17:45.772Z,-77
2018-09-10T02:18:45.915Z,-77
2018-09-10T02:19:45.774Z,-77
2018-09-10T02:20:45.890Z,-77
2018-09-10T02:21:45.775Z,-77
2018-09-10T02:22:45.890Z,-77
2018-09-10T02:23:45.901Z,-77
2018-09-10T02:24:45.898Z,-77
2018-09-10T02:25:45.778Z,-77
2018-09-10T02:26:45.895Z,-77
2018-09-10T02:27:45.851Z,-75
2018-09-10T02:28:45.922Z,-74
2018-09-10T02:29:45.783Z,-73
2018-09-10T02:30:45.897Z,-73
2018-09-10T02:31:45.845Z,-74
2018-09-10T02:32:45.906Z,-73
2018-09-10T02:33:45.811Z,-74
2018-09-10T02:34:45.916Z,-73
2018-09-10T02:35:45.788Z,-74
2018-09-10T02:36:45.912Z,-73
2018-09-10T02:37:45.787Z,-73
2018-09-10T02:38:45.937Z,-74
2018-09-10T02:39:45.792Z,-73
2018-09-10T02:40:45.911Z,-74
2018-09-10T02:41:45.793Z,-74
2018-09-10T02:42:45.915Z,-74
2018-09-10T02:43:45.819Z,-74
2018-09-10T02:44:45.918Z,-74
2018-09-10T02:45:45.797Z,-74
2018-09-10T02:46:45.913Z,-73
2018-09-10T02:47:45.800Z,-74
2018-09-10T02:48:45.940Z,-74
2018-09-10T02:49:45.802Z,-80
2018-09-10T02:50:45.915Z,-74
2018-09-10T02:51:45.803Z,-74
2018-09-10T02:52:45.922Z,-74
2018-09-10T02:53:45.828Z,-74
2018-09-10T02:54:45.924Z,-74
2018-09-10T02:55:45.804Z,-73
2018-09-10T02:56:45.923Z,-74
2018-09-10T02:57:45.808Z,-74
2018-09-10T02:58:45.965Z,-74
2018-09-10T02:59:45.809Z,-74
2018-09-10T03:00:45.930Z,-73
2018-09-10T03:01:45.812Z,-75
2018-09-10T03:02:45.934Z,-75
2018-09-10T03:03:45.837Z,-75
2018-09-10T03:04:45.928Z,-75
2018-09-10T03:05:45.816Z,-75
2018-09-10T03:06:45.934Z,-74
2018-09-10T03:07:45.815Z,-75
2018-09-10T03:08:45.969Z,-75
2018-09-10T03:09:45.819Z,-75
2018-09-10T03:10:45.938Z,-74
2018-09-10T03:11:46.042Z,-76
2018-09-10T03:12:45.937Z,-76
2018-09-10T03:13:46.075Z,-76
2018-09-10T03:14:45.941Z,-76
2018-09-10T03:15:45.823Z,-76
2018-09-10T03:16:45.948Z,-76
2018-09-10T03:17:45.870Z,-77
2018-09-10T03:18:45.969Z,-77
2018-09-10T03:19:45.858Z,-77
2018-09-10T03:20:45.947Z,-77
2018-09-10T03:21:45.831Z,-77
2018-09-10T03:22:45.948Z,-78
2018-09-10T03:23:45.886Z,-79
2018-09-10T03:24:45.946Z,-77
2018-09-10T03:25:45.833Z,-78
2018-09-10T03:26:45.954Z,-77
2018-09-10T03:27:45.837Z,-78
2018-09-10T03:28:45.998Z,-78
2018-09-10T03:29:45.863Z,-78
2018-09-10T03:30:45.958Z,-78
2018-09-10T03:31:45.838Z,-78
2018-09-10T03:32:45.956Z,-78
2018-09-10T03:33:45.930Z,-80
2018-09-10T03:34:45.992Z,-78
2018-09-10T03:35:45.842Z,-78
2018-09-10T03:36:45.961Z,-77
2018-09-10T03:37:45.842Z,-77
2018-09-10T03:38:45.961Z,-77
2018-09-10T03:39:45.871Z,-77
2018-09-10T03:40:45.996Z,-78
2018-09-10T03:41:45.848Z,-78
2018-09-10T03:42:45.967Z,-78
2018-09-10T03:43:45.849Z,-78
2018-09-10T03:44:45.993Z,-78
2018-09-10T03:45:45.850Z,-77
2018-09-10T03:46:45.974Z,-78
2018-09-10T03:47:45.851Z,-77
2018-09-10T03:48:45.968Z,-77
2018-09-10T03:49:45.876Z,-78
2018-09-10T03:50:45.975Z,-78
2018-09-10T03:51:45.860Z,-77
2018-09-10T03:52:45.977Z,-77
2018-09-10T03:53:45.857Z,-77
2018-09-10T03:54:46.001Z,-77
2018-09-10T03:55:45.859Z,-77
2018-09-10T03:56:45.995Z,-75
2018-09-10T03:57:45.861Z,-76
2018-09-10T03:58:45.990Z,-76
2018-09-10T03:59:45.887Z,-75
2018-09-10T04:00:45.984Z,-76
2018-09-10T04:01:45.865Z,-75
2018-09-10T04:02:45.989Z,-76
2018-09-10T04:03:45.867Z,-76
2018-09-10T04:04:46.016Z,-76
2018-09-10T04:05:45.869Z,-76
2018-09-10T04:06:45.990Z,-76
2018-09-10T04:07:45.869Z,-76
2018-09-10T04:08:45.991Z,-76
2018-09-10T04:09:45.896Z,-76
2018-09-10T04:10:45.993Z,-76
2018-09-10T04:11:45.875Z,-76
2018-09-10T04:12:45.992Z,-76
2018-09-10T04:13:45.878Z,-76
2018-09-10T04:14:46.031Z,-75
2018-09-10T04:15:45.879Z,-75
2018-09-10T04:16:46.001Z,-75
2018-09-10T04:17:45.911Z,-75
2018-09-10T04:18:45.997Z,-75
2018-09-10T04:19:45.904Z,-74
2018-09-10T04:20:46.001Z,-73
2018-09-10T04:21:45.885Z,-74
2018-09-10T04:22:46.004Z,-74
2018-09-10T04:23:45.883Z,-74
2018-09-10T04:24:46.030Z,-74
2018-09-10T04:25:45.887Z,-74
2018-09-10T04:26:46.004Z,-74
2018-09-10T04:27:45.888Z,-74
2018-09-10T04:28:46.006Z,-74
2018-09-10T04:29:45.926Z,-74
2018-09-10T04:30:46.008Z,-74
2018-09-10T04:31:45.896Z,-74
2018-09-10T04:32:46.012Z,-74
2018-09-10T04:33:45.896Z,-75
2018-09-10T04:34:46.013Z,-74
2018-09-10T04:35:45.921Z,-72
2018-09-10T04:36:46.017Z,-73
2018-09-10T04:37:45.897Z,-73
2018-09-10T04:38:46.019Z,-74
2018-09-10T04:39:45.899Z,-73
2018-09-10T04:40:46.043Z,-74
2018-09-10T04:41:45.901Z,-74
2018-09-10T04:42:46.018Z,-74
2018-09-10T04:43:45.904Z,-74
2018-09-10T04:44:46.021Z,-74
2018-09-10T04:45:45.929Z,-74
2018-09-10T04:46:46.024Z,-73
2018-09-10T04:47:45.907Z,-75
2018-09-10T04:48:46.036Z,-73
2018-09-10T04:49:45.964Z,-74
2018-09-10T04:50:46.057Z,-74
2018-09-10T04:51:45.910Z,-73
2018-09-10T04:52:46.030Z,-73
2018-09-10T04:53:45.914Z,-74
2018-09-10T04:54:46.031Z,-73
2018-09-10T04:55:45.939Z,-74
2018-09-10T04:56:46.039Z,-73
2018-09-10T04:57:45.915Z,-74
2018-09-10T04:58:46.041Z,-73
2018-09-10T04:59:45.917Z,-73
2018-09-10T05:00:46.066Z,-74
2018-09-10T05:01:45.920Z,-74
2018-09-10T05:02:46.094Z,-73
2018-09-10T05:03:45.920Z,-74
2018-09-10T05:04:46.039Z,-74
2018-09-10T05:05:45.946Z,-73
2018-09-10T05:06:46.040Z,-73
2018-09-10T05:07:45.925Z,-77
2018-09-10T05:08:46.044Z,-73
2018-09-10T05:09:45.949Z,-74
2018-09-10T05:10:46.077Z,-73
2018-09-10T05:11:45.929Z,-75
2018-09-10T05:12:46.045Z,-74
2018-09-10T05:13:45.929Z,-74
2018-09-10T05:14:46.050Z,-73
2018-09-10T05:15:45.956Z,-73
2018-09-10T05:16:46.050Z,-74
2018-09-10T05:17:45.932Z,-74
2018-09-10T05:18:46.057Z,-74
2018-09-10T05:19:45.934Z,-73
2018-09-10T05:20:46.086Z,-73
2018-09-10T05:21:45.937Z,-74
2018-09-10T05:22:46.065Z,-77
2018-09-10T05:23:45.938Z,-74
2018-09-10T05:24:46.055Z,-74
2018-09-10T05:25:45.966Z,-73
2018-09-10T05:26:46.057Z,-73
2018-09-10T05:27:45.947Z,-74
2018-09-10T05:28:46.061Z,-73
2018-09-10T05:29:45.946Z,-73
2018-09-10T05:30:46.086Z,-73
2018-09-10T05:31:45.946Z,-74
2018-09-10T05:32:46.071Z,-74
2018-09-10T05:33:45.947Z,-74
2018-09-10T05:34:46.068Z,-73
2018-09-10T05:35:45.988Z,-74
2018-09-10T05:36:46.083Z,-73
2018-09-10T05:37:45.951Z,-73
2018-09-10T05:38:46.073Z,-73
2018-09-10T05:39:45.954Z,-74
2018-09-10T05:40:46.073Z,-73
2018-09-10T05:41:46.061Z,-73
2018-09-10T05:42:46.072Z,-73
2018-09-10T05:43:45.957Z,-73
2018-09-10T05:44:46.095Z,-73
2018-09-10T05:45:45.958Z,-74
2018-09-10T05:46:46.102Z,-73
2018-09-10T05:47:45.964Z,-73
2018-09-10T05:48:46.079Z,-74
2018-09-10T05:49:45.962Z,-74
2018-09-10T05:50:46.079Z,-73
2018-09-10T05:51:45.990Z,-73
2018-09-10T05:52:46.084Z,-73
2018-09-10T05:53:45.968Z,-73
2018-09-10T05:54:46.086Z,-74
2018-09-10T05:55:45.967Z,-74
2018-09-10T05:56:46.112Z,-73
2018-09-10T05:57:45.970Z,-74
2018-09-10T05:58:46.090Z,-74
2018-09-10T05:59:45.972Z,-74
2018-09-10T06:00:46.094Z,-73
2018-09-10T06:01:45.997Z,-74
2018-09-10T06:02:46.091Z,-73
2018-09-10T06:03:45.974Z,-74
2018-09-10T06:04:46.119Z,-73
2018-09-10T06:05:45.979Z,-74
2018-09-10T06:06:46.121Z,-74
2018-09-10T06:07:45.978Z,-73
2018-09-10T06:08:46.192Z,-73
2018-09-10T06:09:45.980Z,-74
2018-09-10T06:10:46.109Z,-74
2018-09-10T06:11:46.004Z,-74
2018-09-10T06:12:46.102Z,-73
2018-09-10T06:13:45.984Z,-74
2018-09-10T06:14:46.109Z,-74
2018-09-10T06:15:45.987Z,-74
2018-09-10T06:16:46.327Z,-73
2018-09-10T06:17:45.989Z,-73
2018-09-10T06:18:46.105Z,-74
2018-09-10T06:19:45.990Z,-74
2018-09-10T06:20:46.109Z,-73
2018-09-10T06:21:46.019Z,-74
2018-09-10T06:22:46.109Z,-73
2018-09-10T06:23:45.996Z,-74
2018-09-10T06:24:46.112Z,-74
2018-09-10T06:25:45.994Z,-73
2018-09-10T06:26:46.138Z,-74
2018-09-10T06:27:45.996Z,-74
2018-09-10T06:28:46.118Z,-74
2018-09-10T06:29:46.005Z,-74
2018-09-10T06:30:46.121Z,-74
2018-09-10T06:31:46.024Z,-74
2018-09-10T06:32:49.298Z,-73
2018-09-10T06:33:46.043Z,-74
2018-09-10T06:34:46.123Z,-74
2018-09-10T06:35:46.004Z,-73
2018-09-10T06:36:46.205Z,-73
2018-09-10T06:37:46.030Z,-73
2018-09-10T06:38:46.127Z,-73
2018-09-10T06:39:46.007Z,-74
2018-09-10T06:40:46.128Z,-74
2018-09-10T06:41:46.033Z,-77
2018-09-10T06:42:46.130Z,-74
2018-09-10T06:43:46.027Z,-75
2018-09-10T06:44:46.135Z,-73
2018-09-10T06:45:46.014Z,-74
2018-09-10T06:46:46.158Z,-73
2018-09-10T06:47:46.084Z,-74
2018-09-10T06:48:46.134Z,-74
2018-09-10T06:49:46.018Z,-74
2018-09-10T06:50:46.144Z,-74
2018-09-10T06:51:46.056Z,-74
2018-09-10T06:52:46.137Z,-73
2018-09-10T06:53:46.021Z,-74
2018-09-10T06:54:46.143Z,-73
2018-09-10T06:55:46.022Z,-74
2018-09-10T06:56:46.141Z,-73
2018-09-10T06:57:46.047Z,-74
2018-09-10T06:58:46.166Z,-74
2018-09-10T06:59:46.029Z,-74
2018-09-10T07:00:46.147Z,-73
2018-09-10T07:01:46.027Z,-74
2018-09-10T07:02:46.176Z,-74
2018-09-10T07:03:46.029Z,-74
2018-09-10T07:04:49.274Z,-73
2018-09-10T07:05:46.032Z,-74
2018-09-10T07:06:46.158Z,-73
2018-09-10T07:07:46.057Z,-73
2018-09-10T07:08:46.152Z,-74
2018-09-10T07:09:46.034Z,-74
2018-09-10T07:10:46.152Z,-74
2018-09-10T07:11:46.036Z,-74
2018-09-10T07:12:46.325Z,-73
2018-09-10T07:13:46.042Z,-74
2018-09-10T07:14:46.162Z,-73
2018-09-10T07:15:46.038Z,-74
2018-09-10T07:16:46.158Z,-74
2018-09-10T07:17:46.065Z,-74
2018-09-10T07:18:46.526Z,-74
2018-09-10T07:19:46.044Z,-74
2018-09-10T07:20:46.166Z,-73
2018-09-10T07:21:46.047Z,-74
2018-09-10T07:22:46.189Z,-73
2018-09-10T07:23:46.049Z,-74
2018-09-10T07:24:46.173Z,-74
2018-09-10T07:25:46.049Z,-74
2018-09-10T07:26:46.169Z,-74
2018-09-10T07:27:46.075Z,-74
2018-09-10T07:28:46.170Z,-73
2018-09-10T07:29:46.056Z,-74
2018-09-10T07:30:46.170Z,-73
2018-09-10T07:31:46.054Z,-74
2018-09-10T07:32:46.196Z,-74
2018-09-10T07:33:46.055Z,-74
2018-09-10T07:34:46.179Z,-73
2018-09-10T07:35:46.145Z,-74
2018-09-10T07:36:46.175Z,-74
2018-09-10T07:37:46.085Z,-74
2018-09-10T07:38:46.177Z,-74
2018-09-10T07:39:46.062Z,-74
2018-09-10T07:40:46.181Z,-74
2018-09-10T07:41:46.065Z,-74
2018-09-10T07:42:46.209Z,-74
2018-09-10T07:43:46.147Z,-74
2018-09-10T07:44:46.185Z,-74
2018-09-10T07:45:46.068Z,-74
2018-09-10T07:46:46.188Z,-74
2018-09-10T07:47:46.094Z,-74
2018-09-10T07:48:46.263Z,-74
2018-09-10T07:49:46.071Z,-74
2018-09-10T07:50:46.195Z,-74
2018-09-10T07:51:46.074Z,-74
2018-09-10T07:52:46.217Z,-74
2018-09-10T07:53:46.076Z,-75
2018-09-10T07:54:46.194Z,-76
2018-09-10T07:55:46.082Z,-73
2018-09-10T07:56:46.198Z,-74
2018-09-10T07:57:46.102Z,-74
2018-09-10T07:58:46.203Z,-74
2018-09-10T07:59:46.079Z,-74
2018-09-10T08:00:46.289Z,-74
2018-09-10T08:01:46.081Z,-74
2018-09-10T08:02:46.271Z,-74
2018-09-10T08:03:46.085Z,-74
2018-09-10T08:04:46.203Z,-74
2018-09-10T08:05:46.084Z,-74
2018-09-10T08:06:46.206Z,-73
2018-09-10T08:07:46.144Z,-73
2018-09-10T08:08:46.206Z,-74
2018-09-10T08:09:46.091Z,-74
2018-09-10T08:10:46.273Z,-73
2018-09-10T08:11:46.093Z,-73
2018-09-10T08:12:46.210Z,-74
2018-09-10T08:13:46.117Z,-74
2018-09-10T08:14:46.211Z,-73
2018-09-10T08:15:46.095Z,-77
2018-09-10T08:16:46.216Z,-74
2018-09-10T08:17:46.200Z,-74
2018-09-10T08:18:46.241Z,-74
2018-09-10T08:19:46.099Z,-74
2018-09-10T08:20:46.221Z,-74
2018-09-10T08:21:46.101Z,-75
2018-09-10T08:22:46.218Z,-74
2018-09-10T08:23:46.126Z,-74
2018-09-10T08:24:46.220Z,-74
2018-09-10T08:25:46.104Z,-74
2018-09-10T08:26:46.222Z,-74
2018-09-10T08:27:46.106Z,-74
2018-09-10T08:28:46.252Z,-74
2018-09-10T08:29:46.109Z,-74
2018-09-10T08:30:46.226Z,-74
2018-09-10T08:31:46.111Z,-74
2018-09-10T08:32:46.230Z,-74
2018-09-10T08:33:46.135Z,-75
2018-09-10T08:34:46.239Z,-74
2018-09-10T08:35:46.116Z,-74
2018-09-10T08:36:46.233Z,-74
2018-09-10T08:37:46.120Z,-74
2018-09-10T08:38:46.258Z,-74
2018-09-10T08:39:46.128Z,-74
2018-09-10T08:40:46.236Z,-74
2018-09-10T08:41:46.119Z,-73
2018-09-10T08:42:46.374Z,-74
2018-09-10T08:43:46.146Z,-74
2018-09-10T08:44:46.239Z,-74
2018-09-10T08:45:46.123Z,-74
2018-09-10T08:46:46.241Z,-74
2018-09-10T08:47:46.126Z,-74
2018-09-10T08:48:46.269Z,-74
2018-09-10T08:49:46.127Z,-74
2018-09-10T08:50:46.249Z,-74
2018-09-10T08:51:46.129Z,-74
2018-09-10T08:52:46.247Z,-74
2018-09-10T08:53:46.156Z,-74
2018-09-10T08:54:46.997Z,-74
2018-09-10T08:55:46.307Z,-74
2018-09-10T08:56:46.247Z,-74
2018-09-10T08:57:46.133Z,-74
2018-09-10T08:58:46.277Z,-74
2018-09-10T08:59:46.137Z,-74
2018-09-10T09:00:46.254Z,-74
2018-09-10T09:01:46.168Z,-74
2018-09-10T09:02:46.256Z,-74
2018-09-10T09:03:46.164Z,-74
2018-09-10T09:04:46.259Z,-74
2018-09-10T09:05:46.142Z,-74
2018-09-10T09:06:46.265Z,-74
2018-09-10T09:07:46.142Z,-74
2018-09-10T09:08:46.283Z,-74
2018-09-10T09:09:46.205Z,-74
2018-09-10T09:10:46.264Z,-74
2018-09-10T09:11:46.199Z,-74
2018-09-10T09:12:46.264Z,-74
2018-09-10T09:13:46.189Z,-74
2018-09-10T09:14:46.269Z,-74
2018-09-10T09:15:46.152Z,-74
2018-09-10T09:16:46.271Z,-74
2018-09-10T09:17:46.151Z,-74
2018-09-10T09:18:46.280Z,-74
2018-09-10T09:19:46.179Z,-74
2018-09-10T09:20:46.279Z,-74
2018-09-10T09:21:46.155Z,-75
2018-09-10T09:22:46.275Z,-74
2018-09-10T09:23:46.161Z,-74
2018-09-10T09:24:46.310Z,-74
2018-09-10T09:25:46.158Z,-74
2018-09-10T09:26:46.276Z,-74
2018-09-10T09:27:46.160Z,-74
2018-09-10T09:28:46.282Z,-74
2018-09-10T09:29:46.214Z,-74
2018-09-10T09:30:46.282Z,-74
2018-09-10T09:31:46.164Z,-74
2018-09-10T09:32:46.286Z,-74
2018-09-10T09:33:46.166Z,-75
2018-09-10T09:34:46.363Z,-74
2018-09-10T09:35:46.168Z,-74
2018-09-10T09:36:46.286Z,-74
2018-09-10T09:37:46.168Z,-74
2018-09-10T09:38:46.287Z,-74
2018-09-10T09:39:46.199Z,-74
2018-09-10T09:40:46.296Z,-74
2018-09-10T09:41:46.173Z,-74
2018-09-10T09:42:46.523Z,-74
2018-09-10T09:43:46.176Z,-74
2018-09-10T09:44:46.383Z,-74
2018-09-10T09:45:46.179Z,-75
2018-09-10T09:46:46.297Z,-74
2018-09-10T09:47:46.180Z,-74
2018-09-10T09:48:46.297Z,-74
2018-09-10T09:49:46.205Z,-78
2018-09-10T09:50:46.297Z,-74
2018-09-10T09:51:46.183Z,-74
2018-09-10T09:52:46.299Z,-74
2018-09-10T09:53:46.186Z,-74
2018-09-10T09:54:46.328Z,-74
2018-09-10T09:55:46.187Z,-74
2018-09-10T09:56:46.705Z,-75
2018-09-10T09:57:46.189Z,-75
2018-09-10T09:58:46.311Z,-74
2018-09-10T09:59:46.216Z,-74
2018-09-10T10:00:46.319Z,-74
2018-09-10T10:01:46.192Z,-74
2018-09-10T10:02:46.315Z,-74
2018-09-10T10:03:46.194Z,-74
2018-09-10T10:04:46.338Z,-74
2018-09-10T10:05:46.197Z,-74
2018-09-10T10:06:46.316Z,-74
2018-09-10T10:07:46.197Z,-74
2018-09-10T10:08:46.318Z,-74
2018-09-10T10:09:46.227Z,-75
2018-09-10T10:10:46.319Z,-74
2018-09-10T10:11:46.263Z,-74
2018-09-10T10:12:46.329Z,-74
2018-09-10T10:13:46.205Z,-75
2018-09-10T10:14:46.320Z,-74
2018-09-10T10:15:46.231Z,-74
2018-09-10T10:16:46.326Z,-74
2018-09-10T10:17:46.209Z,-74
2018-09-10T10:18:46.333Z,-74
2018-09-10T10:19:46.211Z,-74
2018-09-10T10:20:46.356Z,-74
2018-09-10T10:21:46.213Z,-76
2018-09-10T10:22:46.333Z,-74
2018-09-10T10:23:46.280Z,-74
2018-09-10T10:24:46.338Z,-74
2018-09-10T10:25:46.240Z,-74
2018-09-10T10:26:46.333Z,-75
2018-09-10T10:27:46.216Z,-74
2018-09-10T10:28:46.338Z,-75
2018-09-10T10:29:46.220Z,-75
2018-09-10T10:30:46.359Z,-74
2018-09-10T10:31:46.224Z,-74
2018-09-10T10:32:46.345Z,-74
2018-09-10T10:33:46.222Z,-76
2018-09-10T10:34:46.350Z,-75
2018-09-10T10:35:46.250Z,-75
2018-09-10T10:36:46.348Z,-74
2018-09-10T10:37:46.261Z,-76
2018-09-10T10:38:46.346Z,-74
2018-09-10T10:39:46.229Z,-74
2018-09-10T10:40:46.378Z,-74
2018-09-10T10:41:46.234Z,-74
2018-09-10T10:42:46.349Z,-74
2018-09-10T10:43:46.231Z,-74
2018-09-10T10:44:46.352Z,-74
2018-09-10T10:45:46.257Z,-76
2018-09-10T10:46:46.349Z,-74
2018-09-10T10:47:46.236Z,-74
2018-09-10T10:48:46.361Z,-74
2018-09-10T10:49:46.241Z,-74
2018-09-10T10:50:46.385Z,-74
2018-09-10T10:51:46.240Z,-74
2018-09-10T10:52:46.362Z,-74
2018-09-10T10:53:46.361Z,-75
2018-09-10T10:54:46.359Z,-74
2018-09-10T10:55:46.272Z,-74
2018-09-10T10:56:46.364Z,-74
2018-09-10T10:57:46.245Z,-76
2018-09-10T10:58:46.366Z,-74
2018-09-10T10:59:46.307Z,-74
2018-09-10T11:00:46.393Z,-74
2018-09-10T11:01:46.251Z,-74
2018-09-10T11:02:46.368Z,-75
2018-09-10T11:03:46.252Z,-78
2018-09-10T11:04:46.376Z,-75
2018-09-10T11:05:46.277Z,-74
2018-09-10T11:06:46.371Z,-74
2018-09-10T11:07:46.258Z,-74
2018-09-10T11:08:46.373Z,-74
2018-09-10T11:09:46.263Z,-75
2018-09-10T11:10:46.406Z,-74
2018-09-10T11:11:46.261Z,-74
2018-09-10T11:12:46.385Z,-74
2018-09-10T11:13:46.262Z,-74
2018-09-10T11:14:46.378Z,-74
2018-09-10T11:15:46.301Z,-74
2018-09-10T11:16:46.555Z,-74
2018-09-10T11:17:46.268Z,-74
2018-09-10T11:18:46.438Z,-74
2018-09-10T11:19:46.269Z,-74
2018-09-10T11:20:46.389Z,-74
2018-09-10T11:21:46.297Z,-76
2018-09-10T11:22:47.583Z,-74
2018-09-10T11:23:46.279Z,-77
2018-09-10T11:24:46.387Z,-74
2018-09-10T11:25:46.274Z,-76
2018-09-10T11:26:46.416Z,-74
2018-09-10T11:27:46.407Z,-74
2018-09-10T11:28:46.405Z,-74
2018-09-10T11:29:46.370Z,-74
2018-09-10T11:30:46.400Z,-74
2018-09-10T11:31:46.302Z,-75
2018-09-10T11:32:46.399Z,-74
2018-09-10T11:33:46.280Z,-76
2018-09-10T11:34:46.652Z,-75
2018-09-10T11:35:46.283Z,-74
2018-09-10T11:36:46.426Z,-74
2018-09-10T11:37:46.283Z,-75
2018-09-10T11:38:46.399Z,-75
2018-09-10T11:39:46.522Z,-76
2018-09-10T11:40:46.405Z,-75
2018-09-10T11:41:46.310Z,-75
2018-09-10T11:42:46.408Z,-74
2018-09-10T11:43:46.289Z,-74
2018-09-10T11:44:46.412Z,-74
2018-09-10T11:45:46.290Z,-76
2018-09-10T11:46:46.435Z,-75
2018-09-10T11:47:46.292Z,-74
2018-09-10T11:48:46.423Z,-74
2018-09-10T11:49:46.293Z,-75
2018-09-10T11:50:46.417Z,-74
2018-09-10T11:51:46.330Z,-74
2018-09-10T11:52:46.435Z,-74
2018-09-10T11:53:46.301Z,-74
2018-09-10T11:54:46.425Z,-74
2018-09-10T11:55:46.465Z,-74
2018-09-10T11:56:46.450Z,-75
2018-09-10T11:57:46.303Z,-77
2018-09-10T11:58:46.423Z,-74
2018-09-10T11:59:46.310Z,-74
2018-09-10T12:00:46.425Z,-74
2018-09-10T12:01:46.373Z,-75
2018-09-10T12:02:46.430Z,-74
2018-09-10T12:03:46.309Z,-74
2018-09-10T12:04:46.429Z,-74
2018-09-10T12:05:46.310Z,-74
2018-09-10T12:06:46.552Z,-75
2018-09-10T12:07:47.350Z,-74
2018-09-10T12:08:46.429Z,-74
2018-09-10T12:09:46.313Z,-75
2018-09-10T12:10:46.430Z,-74
2018-09-10T12:11:46.343Z,-74
2018-09-10T12:12:46.436Z,-74
2018-09-10T12:13:46.318Z,-75
2018-09-10T12:14:46.439Z,-74
2018-09-10T12:15:46.320Z,-74
2018-09-10T12:16:46.536Z,-74
2018-09-10T12:17:46.321Z,-75
2018-09-10T12:18:46.444Z,-75
2018-09-10T12:19:46.325Z,-74
2018-09-10T12:20:46.443Z,-74
2018-09-10T12:21:46.349Z,-76
2018-09-10T12:22:46.444Z,-74
2018-09-10T12:23:46.327Z,-74
2018-09-10T12:24:46.448Z,-74
2018-09-10T12:25:46.328Z,-74
2018-09-10T12:26:46.769Z,-74
2018-09-10T12:27:46.334Z,-74
2018-09-10T12:28:46.451Z,-75
2018-09-10T12:29:46.333Z,-79
2018-09-10T12:30:46.454Z,-74
2018-09-10T12:31:46.372Z,-75
2018-09-10T12:32:46.473Z,-74
2018-09-10T12:33:46.340Z,-75
2018-09-10T12:34:46.455Z,-75
2018-09-10T12:35:46.338Z,-74
2018-09-10T12:36:46.455Z,-74
2018-09-10T12:37:46.363Z,-75
2018-09-10T12:38:46.458Z,-75
2018-09-10T12:39:46.426Z,-75
2018-09-10T12:40:46.468Z,-74
2018-09-10T12:41:46.344Z,-75
2018-09-10T12:42:46.491Z,-74
2018-09-10T12:43:46.353Z,-74
2018-09-10T12:44:46.465Z,-74
2018-09-10T12:45:46.346Z,-76
2018-09-10T12:46:46.634Z,-74
2018-09-10T12:47:46.374Z,-75
2018-09-10T12:48:46.512Z,-74
2018-09-10T12:49:46.350Z,-75
2018-09-10T12:50:46.470Z,-74
2018-09-10T12:51:46.352Z,-74
2018-09-10T12:52:46.515Z,-74
2018-09-10T12:53:46.355Z,-74
2018-09-10T12:54:46.496Z,-74
2018-09-10T12:55:46.356Z,-74
2018-09-10T12:56:46.516Z,-74
2018-09-10T12:57:46.381Z,-77
2018-09-10T12:58:46.538Z,-74
2018-09-10T12:59:46.360Z,-74
2018-09-10T13:00:46.481Z,-74
2018-09-10T13:01:46.365Z,-74
2018-09-10T13:02:46.504Z,-74
2018-09-10T13:03:46.364Z,-74
2018-09-10T13:04:46.678Z,-74
2018-09-10T13:05:46.367Z,-74
2018-09-10T13:06:46.486Z,-74
2018-09-10T13:07:46.395Z,-75
2018-09-10T13:08:46.489Z,-74
2018-09-10T13:09:46.381Z,-75
2018-09-10T13:10:46.638Z,-74
2018-09-10T13:11:46.374Z,-74
2018-09-10T13:12:46.520Z,-74
2018-09-10T13:13:46.379Z,-74
2018-09-10T13:14:46.494Z,-74
2018-09-10T13:15:46.376Z,-74
2018-09-10T13:16:46.500Z,-75
2018-09-10T13:17:46.402Z,-75
2018-09-10T13:18:46.498Z,-74
2018-09-10T13:19:46.383Z,-74
2018-09-10T13:20:46.503Z,-74
2018-09-10T13:21:46.382Z,-74
2018-09-10T13:22:46.524Z,-74
2018-09-10T13:23:46.385Z,-74
2018-09-10T13:24:46.507Z,-74
2018-09-10T13:25:46.386Z,-75
2018-09-10T13:26:46.517Z,-74
2018-09-10T13:27:46.413Z,-74
2018-09-10T13:28:46.509Z,-74
2018-09-10T13:29:46.501Z,-74
2018-09-10T13:30:46.508Z,-74
2018-09-10T13:31:46.394Z,-74
2018-09-10T13:32:46.537Z,-74
2018-09-10T13:33:46.397Z,-75
2018-09-10T13:34:46.701Z,-74
2018-09-10T13:35:46.396Z,-74
2018-09-10T13:36:46.866Z,-74
2018-09-10T13:37:46.781Z,-74
2018-09-10T13:38:46.525Z,-74
2018-09-10T13:39:46.405Z,-74
2018-09-10T13:40:46.522Z,-74
2018-09-10T13:41:46.404Z,-74
2018-09-10T13:42:46.602Z,-74
2018-09-10T13:43:46.406Z,-74
2018-09-10T13:44:46.528Z,-74
2018-09-10T13:45:46.409Z,-74
2018-09-10T13:46:46.523Z,-74
2018-09-10T13:47:46.433Z,-74